sensor_id;sensor_type;location;lat;lon;timestamp;pressure;altitude;pressure_sealevel;temperature;humidity
80118;BME280;69424;48.770;-1.564;2024-02-14T00:00:12;101689.13;;;12.76;88.10
80118;BME280;69424;48.770;-1.564;2024-02-14T00:01:07;101693.92;;;12.77;88.15
80118;BME280;69424;48.770;-1.564;2024-02-14T00:01:45;101690.90;;;12.77;88.25
80118;BME280;69424;48.770;-1.564;2024-02-14T00:02:17;101690.89;;;12.77;88.16
80118;BME280;69424;48.770;-1.564;2024-02-14T00:02:50;101690.71;;;12.76;88.09
80118;BME280;69424;48.770;-1.564;2024-02-14T00:03:24;101692.84;;;12.76;87.92
80118;BME280;69424;48.770;-1.564;2024-02-14T00:03:57;101694.06;;;12.75;88.06
80118;BME280;69424;48.770;-1.564;2024-02-14T00:04:30;101696.70;;;12.74;88.11
80118;BME280;69424;48.770;-1.564;2024-02-14T00:05:03;101697.95;;;12.74;88.17
80118;BME280;69424;48.770;-1.564;2024-02-14T00:05:37;101694.93;;;12.73;88.30
80118;BME280;69424;48.770;-1.564;2024-02-14T00:06:10;101698.82;;;12.72;88.44
80118;BME280;69424;48.770;-1.564;2024-02-14T00:06:45;101693.85;;;12.72;88.49
80118;BME280;69424;48.770;-1.564;2024-02-14T00:07:17;101695.09;;;12.72;88.30
80118;BME280;69424;48.770;-1.564;2024-02-14T00:07:51;101690.46;;;12.70;88.25
80118;BME280;69424;48.770;-1.564;2024-02-14T00:08:24;101698.06;;;12.70;88.42
80118;BME280;69424;48.770;-1.564;2024-02-14T00:08:56;101698.25;;;12.70;88.50
80118;BME280;69424;48.770;-1.564;2024-02-14T00:09:31;101696.24;;;12.67;88.86
80118;BME280;69424;48.770;-1.564;2024-02-14T00:10:04;101697.66;;;12.67;88.62
80118;BME280;69424;48.770;-1.564;2024-02-14T00:10:39;101702.96;;;12.65;88.76
80118;BME280;69424;48.770;-1.564;2024-02-14T00:11:12;101699.60;;;12.66;88.87
80118;BME280;69424;48.770;-1.564;2024-02-14T00:11:46;101703.67;;;12.65;88.89
80118;BME280;69424;48.770;-1.564;2024-02-14T00:12:19;101705.63;;;12.65;88.86
80118;BME280;69424;48.770;-1.564;2024-02-14T00:12:53;101704.19;;;12.64;88.80
80118;BME280;69424;48.770;-1.564;2024-02-14T00:13:25;101700.30;;;12.65;89.05
80118;BME280;69424;48.770;-1.564;2024-02-14T00:13:58;101702.41;;;12.64;88.78
80118;BME280;69424;48.770;-1.564;2024-02-14T00:14:33;101705.05;;;12.63;88.75
80118;BME280;69424;48.770;-1.564;2024-02-14T00:15:06;101702.55;;;12.62;88.78
80118;BME280;69424;48.770;-1.564;2024-02-14T00:15:40;101705.04;;;12.61;88.71
80118;BME280;69424;48.770;-1.564;2024-02-14T00:16:14;101700.58;;;12.60;88.94
80118;BME280;69424;48.770;-1.564;2024-02-14T00:16:47;101703.59;;;12.60;89.08
80118;BME280;69424;48.770;-1.564;2024-02-14T00:17:20;101698.96;;;12.59;89.05
80118;BME280;69424;48.770;-1.564;2024-02-14T00:17:54;101701.47;;;12.60;89.14
80118;BME280;69424;48.770;-1.564;2024-02-14T00:18:27;101696.85;;;12.60;89.27
80118;BME280;69424;48.770;-1.564;2024-02-14T00:19:00;101700.59;;;12.60;89.09
80118;BME280;69424;48.770;-1.564;2024-02-14T00:19:35;101697.92;;;12.61;89.14
80118;BME280;69424;48.770;-1.564;2024-02-14T00:20:09;101706.61;;;12.61;89.13
80118;BME280;69424;48.770;-1.564;2024-02-14T00:20:45;101704.68;;;12.62;89.16
80118;BME280;69424;48.770;-1.564;2024-02-14T00:21:18;101704.16;;;12.61;89.09
80118;BME280;69424;48.770;-1.564;2024-02-14T00:21:51;101702.91;;;12.61;89.16
80118;BME280;69424;48.770;-1.564;2024-02-14T00:22:24;101701.84;;;12.61;89.01
80118;BME280;69424;48.770;-1.564;2024-02-14T00:22:57;101703.06;;;12.61;88.88
80118;BME280;69424;48.770;-1.564;2024-02-14T00:23:30;101703.25;;;12.60;88.93
80118;BME280;69424;48.770;-1.564;2024-02-14T00:24:04;101700.95;;;12.61;89.00
80118;BME280;69424;48.770;-1.564;2024-02-14T00:24:37;101701.30;;;12.61;89.20
80118;BME280;69424;48.770;-1.564;2024-02-14T00:25:10;101705.22;;;12.61;89.00
80118;BME280;69424;48.770;-1.564;2024-02-14T00:25:44;101700.58;;;12.60;89.10
80118;BME280;69424;48.770;-1.564;2024-02-14T00:26:16;101702.70;;;12.59;89.16
80118;BME280;69424;48.770;-1.564;2024-02-14T00:26:50;101702.52;;;12.59;89.05
80118;BME280;69424;48.770;-1.564;2024-02-14T00:27:23;101705.70;;;12.59;89.13
80118;BME280;69424;48.770;-1.564;2024-02-14T00:27:58;101700.89;;;12.58;89.24
80118;BME280;69424;48.770;-1.564;2024-02-14T00:28:33;101698.75;;;12.57;89.16
80118;BME280;69424;48.770;-1.564;2024-02-14T00:29:06;101700.73;;;12.58;89.25
80118;BME280;69424;48.770;-1.564;2024-02-14T00:29:40;101700.36;;;12.57;89.39
80118;BME280;69424;48.770;-1.564;2024-02-14T00:30:13;101698.77;;;12.57;89.38
80118;BME280;69424;48.770;-1.564;2024-02-14T00:30:46;101696.27;;;12.58;89.32
80118;BME280;69424;48.770;-1.564;2024-02-14T00:31:19;101699.31;;;12.59;89.36
80118;BME280;69424;48.770;-1.564;2024-02-14T00:31:52;101694.50;;;12.57;89.22
80118;BME280;69424;48.770;-1.564;2024-02-14T00:32:25;101695.54;;;12.56;89.59
80118;BME280;69424;48.770;-1.564;2024-02-14T00:32:59;101694.83;;;12.56;89.49
80118;BME280;69424;48.770;-1.564;2024-02-14T00:33:32;101696.05;;;12.55;89.48
80118;BME280;69424;48.770;-1.564;2024-02-14T00:34:05;101695.89;;;12.56;89.53
80118;BME280;69424;48.770;-1.564;2024-02-14T00:34:39;101696.40;;;12.55;89.70
80118;BME280;69424;48.770;-1.564;2024-02-14T00:35:12;101695.00;;;12.56;89.68
80118;BME280;69424;48.770;-1.564;2024-02-14T00:35:45;101696.07;;;12.56;89.76
80118;BME280;69424;48.770;-1.564;2024-02-14T00:36:18;101693.96;;;12.56;89.54
80118;BME280;69424;48.770;-1.564;2024-02-14T00:36:52;101694.84;;;12.56;89.58
80118;BME280;69424;48.770;-1.564;2024-02-14T00:37:26;101691.85;;;12.58;89.74
80118;BME280;69424;48.770;-1.564;2024-02-14T00:38:00;101696.65;;;12.59;89.71
80118;BME280;69424;48.770;-1.564;2024-02-14T00:38:33;101689.76;;;12.60;89.73
80118;BME280;69424;48.770;-1.564;2024-02-14T00:39:06;101686.21;;;12.60;89.71
80118;BME280;69424;48.770;-1.564;2024-02-14T00:39:42;101688.53;;;12.61;89.86
80118;BME280;69424;48.770;-1.564;2024-02-14T00:40:17;101683.73;;;12.61;89.94
80118;BME280;69424;48.770;-1.564;2024-02-14T00:40:51;101678.25;;;12.62;89.72
80118;BME280;69424;48.770;-1.564;2024-02-14T00:41:26;101682.52;;;12.63;89.66
80118;BME280;69424;48.770;-1.564;2024-02-14T00:42:02;101679.34;;;12.63;89.60
80118;BME280;69424;48.770;-1.564;2024-02-14T00:42:36;101685.72;;;12.63;89.56
80118;BME280;69424;48.770;-1.564;2024-02-14T00:43:09;101679.52;;;12.63;89.59
80118;BME280;69424;48.770;-1.564;2024-02-14T00:43:42;101683.42;;;12.64;89.57
80118;BME280;69424;48.770;-1.564;2024-02-14T00:44:15;101685.90;;;12.64;89.55
80118;BME280;69424;48.770;-1.564;2024-02-14T00:44:49;101687.33;;;12.63;89.59
80118;BME280;69424;48.770;-1.564;2024-02-14T00:45:22;101678.44;;;12.63;89.68
80118;BME280;69424;48.770;-1.564;2024-02-14T00:45:55;101682.69;;;12.62;89.59
80118;BME280;69424;48.770;-1.564;2024-02-14T00:46:29;101686.94;;;12.60;89.45
80118;BME280;69424;48.770;-1.564;2024-02-14T00:47:02;101687.25;;;12.59;89.51
80118;BME280;69424;48.770;-1.564;2024-02-14T00:47:36;101688.14;;;12.59;89.68
80118;BME280;69424;48.770;-1.564;2024-02-14T00:48:09;101692.93;;;12.59;89.69
80118;BME280;69424;48.770;-1.564;2024-02-14T00:48:42;101689.76;;;12.60;89.78
80118;BME280;69424;48.770;-1.564;2024-02-14T00:49:17;101693.32;;;12.61;89.70
80118;BME280;69424;48.770;-1.564;2024-02-14T00:49:50;101693.49;;;12.61;89.76
80118;BME280;69424;48.770;-1.564;2024-02-14T00:50:24;101692.27;;;12.62;89.58
80118;BME280;69424;48.770;-1.564;2024-02-14T00:50:58;101694.24;;;12.63;89.51
80118;BME280;69424;48.770;-1.564;2024-02-14T00:51:32;101694.08;;;12.63;89.64
80118;BME280;69424;48.770;-1.564;2024-02-14T00:52:06;101691.05;;;12.63;89.63
80118;BME280;69424;48.770;-1.564;2024-02-14T00:52:39;101686.09;;;12.64;89.79
80118;BME280;69424;48.770;-1.564;2024-02-14T00:53:12;101690.71;;;12.64;89.68
80118;BME280;69424;48.770;-1.564;2024-02-14T00:53:46;101687.34;;;12.64;89.60
80118;BME280;69424;48.770;-1.564;2024-02-14T00:54:19;101687.68;;;12.64;89.52
80118;BME280;69424;48.770;-1.564;2024-02-14T00:54:52;101694.07;;;12.63;89.74
80118;BME280;69424;48.770;-1.564;2024-02-14T00:55:25;101691.39;;;12.62;89.74
80118;BME280;69424;48.770;-1.564;2024-02-14T00:55:59;101695.48;;;12.62;89.61
80118;BME280;69424;48.770;-1.564;2024-02-14T00:56:32;101693.13;;;12.60;89.74
80118;BME280;69424;48.770;-1.564;2024-02-14T00:57:05;101696.14;;;12.59;89.70
80118;BME280;69424;48.770;-1.564;2024-02-14T00:57:38;101694.69;;;12.58;89.75
80118;BME280;69424;48.770;-1.564;2024-02-14T00:58:11;101699.29;;;12.57;89.78
80118;BME280;69424;48.770;-1.564;2024-02-14T00:58:44;101698.92;;;12.57;89.87
80118;BME280;69424;48.770;-1.564;2024-02-14T00:59:17;101701.05;;;12.57;89.66
80118;BME280;69424;48.770;-1.564;2024-02-14T00:59:50;101702.13;;;12.57;89.89
80118;BME280;69424;48.770;-1.564;2024-02-14T01:00:23;101696.80;;;12.57;89.65
80118;BME280;69424;48.770;-1.564;2024-02-14T01:00:57;101699.30;;;12.58;89.57
80118;BME280;69424;48.770;-1.564;2024-02-14T01:01:30;101694.52;;;12.58;89.48
80118;BME280;69424;48.770;-1.564;2024-02-14T01:02:03;101696.65;;;12.59;89.67
80118;BME280;69424;48.770;-1.564;2024-02-14T01:02:36;101699.70;;;12.60;89.54
80118;BME280;69424;48.770;-1.564;2024-02-14T01:03:09;101697.93;;;12.61;89.54
80118;BME280;69424;48.770;-1.564;2024-02-14T01:03:46;101701.85;;;12.62;89.59
80118;BME280;69424;48.770;-1.564;2024-02-14T01:04:18;101699.92;;;12.63;89.68
80118;BME280;69424;48.770;-1.564;2024-02-14T01:04:52;101693.71;;;12.63;89.45
80118;BME280;69424;48.770;-1.564;2024-02-14T01:05:25;101695.31;;;12.64;89.40
80118;BME280;69424;48.770;-1.564;2024-02-14T01:05:58;101692.12;;;12.64;89.52
80118;BME280;69424;48.770;-1.564;2024-02-14T01:06:31;101694.23;;;12.64;89.54
80118;BME280;69424;48.770;-1.564;2024-02-14T01:07:04;101690.89;;;12.65;89.51
80118;BME280;69424;48.770;-1.564;2024-02-14T01:07:38;101684.69;;;12.65;89.58
80118;BME280;69424;48.770;-1.564;2024-02-14T01:08:10;101687.54;;;12.66;89.67
80118;BME280;69424;48.770;-1.564;2024-02-14T01:08:44;101685.93;;;12.66;89.51
80118;BME280;69424;48.770;-1.564;2024-02-14T01:09:18;101689.66;;;12.65;89.50
80118;BME280;69424;48.770;-1.564;2024-02-14T01:09:51;101695.53;;;12.67;89.53
80118;BME280;69424;48.770;-1.564;2024-02-14T01:10:24;101692.16;;;12.67;89.47
80118;BME280;69424;48.770;-1.564;2024-02-14T01:10:57;101693.40;;;12.67;89.51
80118;BME280;69424;48.770;-1.564;2024-02-14T01:11:30;101697.14;;;12.67;89.67
80118;BME280;69424;48.770;-1.564;2024-02-14T01:12:03;101695.17;;;12.67;89.59
80118;BME280;69424;48.770;-1.564;2024-02-14T01:12:37;101696.79;;;12.67;89.50
80118;BME280;69424;48.770;-1.564;2024-02-14T01:13:10;101691.42;;;12.66;89.55
80118;BME280;69424;48.770;-1.564;2024-02-14T01:13:44;101698.00;;;12.65;89.65
80118;BME280;69424;48.770;-1.564;2024-02-14T01:14:17;101693.55;;;12.64;89.60
80118;BME280;69424;48.770;-1.564;2024-02-14T01:14:50;101695.14;;;12.63;89.57
80118;BME280;69424;48.770;-1.564;2024-02-14T01:15:23;101697.05;;;12.62;89.62
80118;BME280;69424;48.770;-1.564;2024-02-14T01:15:56;101694.92;;;12.61;89.76
80118;BME280;69424;48.770;-1.564;2024-02-14T01:16:30;101696.33;;;12.61;90.01
80118;BME280;69424;48.770;-1.564;2024-02-14T01:17:05;101695.62;;;12.60;89.85
80118;BME280;69424;48.770;-1.564;2024-02-14T01:17:40;101691.35;;;12.60;89.87
80118;BME280;69424;48.770;-1.564;2024-02-14T01:18:15;101692.62;;;12.61;89.87
80118;BME280;69424;48.770;-1.564;2024-02-14T01:18:50;101696.35;;;12.62;89.91
80118;BME280;69424;48.770;-1.564;2024-02-14T01:19:25;101692.81;;;12.63;89.79
80118;BME280;69424;48.770;-1.564;2024-02-14T01:20:02;101696.55;;;12.63;89.99
80118;BME280;69424;48.770;-1.564;2024-02-14T01:20:37;101692.30;;;12.64;89.92
80118;BME280;69424;48.770;-1.564;2024-02-14T01:21:13;101687.36;;;12.65;89.87
80118;BME280;69424;48.770;-1.564;2024-02-14T01:21:50;101690.20;;;12.67;89.84
80118;BME280;69424;48.770;-1.564;2024-02-14T01:22:26;101684.71;;;12.67;89.85
80118;BME280;69424;48.770;-1.564;2024-02-14T01:23:02;101682.41;;;12.68;89.86
80118;BME280;69424;48.770;-1.564;2024-02-14T01:23:36;101679.77;;;12.69;89.80
80118;BME280;69424;48.770;-1.564;2024-02-14T01:24:10;101681.39;;;12.70;89.62
80118;BME280;69424;48.770;-1.564;2024-02-14T01:24:45;101680.69;;;12.71;89.47
80118;BME280;69424;48.770;-1.564;2024-02-14T01:25:23;101681.23;;;12.71;89.59
80118;BME280;69424;48.770;-1.564;2024-02-14T01:25:57;101686.39;;;12.72;89.39
80118;BME280;69424;48.770;-1.564;2024-02-14T01:26:31;101683.92;;;12.73;89.41
80118;BME280;69424;48.770;-1.564;2024-02-14T01:27:05;101683.22;;;12.74;89.31
80118;BME280;69424;48.770;-1.564;2024-02-14T01:27:38;101681.45;;;12.75;89.47
80118;BME280;69424;48.770;-1.564;2024-02-14T01:28:12;101684.66;;;12.76;89.49
80118;BME280;69424;48.770;-1.564;2024-02-14T01:28:44;101681.48;;;12.76;89.32
80118;BME280;69424;48.770;-1.564;2024-02-14T01:29:17;101684.67;;;12.76;89.48
80118;BME280;69424;48.770;-1.564;2024-02-14T01:29:52;101687.70;;;12.76;89.39
80118;BME280;69424;48.770;-1.564;2024-02-14T01:30:27;101683.77;;;12.76;89.56
80118;BME280;69424;48.770;-1.564;2024-02-14T01:31:00;101684.67;;;12.75;89.37
80118;BME280;69424;48.770;-1.564;2024-02-14T01:31:33;101682.52;;;12.74;89.42
80118;BME280;69424;48.770;-1.564;2024-02-14T01:32:08;101684.10;;;12.74;89.51
80118;BME280;69424;48.770;-1.564;2024-02-14T01:32:42;101683.58;;;12.74;89.36
80118;BME280;69424;48.770;-1.564;2024-02-14T01:33:15;101683.40;;;12.74;89.45
80118;BME280;69424;48.770;-1.564;2024-02-14T01:33:49;101681.98;;;12.74;89.52
80118;BME280;69424;48.770;-1.564;2024-02-14T01:34:23;101683.58;;;12.74;89.29
80118;BME280;69424;48.770;-1.564;2024-02-14T01:34:57;101683.57;;;12.74;89.19
80118;BME280;69424;48.770;-1.564;2024-02-14T01:35:30;101684.30;;;12.75;89.29
80118;BME280;69424;48.770;-1.564;2024-02-14T01:36:04;101681.11;;;12.75;89.14
80118;BME280;69424;48.770;-1.564;2024-02-14T01:36:38;101679.16;;;12.75;89.12
80118;BME280;69424;48.770;-1.564;2024-02-14T01:37:11;101682.72;;;12.76;89.18
80118;BME280;69424;48.770;-1.564;2024-02-14T01:37:44;101684.67;;;12.76;89.13
80118;BME280;69424;48.770;-1.564;2024-02-14T01:38:18;101683.77;;;12.76;89.02
80118;BME280;69424;48.770;-1.564;2024-02-14T01:38:54;101685.37;;;12.76;89.13
80118;BME280;69424;48.770;-1.564;2024-02-14T01:39:27;101687.67;;;12.75;89.10
80118;BME280;69424;48.770;-1.564;2024-02-14T01:40:00;101689.63;;;12.75;88.97
80118;BME280;69424;48.770;-1.564;2024-02-14T01:40:34;101689.09;;;12.75;89.08
80118;BME280;69424;48.770;-1.564;2024-02-14T01:41:07;101692.98;;;12.74;88.93
80118;BME280;69424;48.770;-1.564;2024-02-14T01:42:14;101687.11;;;12.72;89.14
80118;BME280;69424;48.770;-1.564;2024-02-14T01:42:48;101691.89;;;12.71;88.95
80118;BME280;69424;48.770;-1.564;2024-02-14T01:43:21;101690.45;;;12.70;89.19
80118;BME280;69424;48.770;-1.564;2024-02-14T01:43:55;101696.66;;;12.71;89.10
80118;BME280;69424;48.770;-1.564;2024-02-14T01:44:28;101693.28;;;12.70;89.30
80118;BME280;69424;48.770;-1.564;2024-02-14T01:45:02;101697.00;;;12.70;89.17
80118;BME280;69424;48.770;-1.564;2024-02-14T01:45:37;101698.41;;;12.69;89.38
80118;BME280;69424;48.770;-1.564;2024-02-14T01:46:11;101702.51;;;12.70;89.23
80118;BME280;69424;48.770;-1.564;2024-02-14T01:46:44;101698.23;;;12.69;89.21
80118;BME280;69424;48.770;-1.564;2024-02-14T01:47:18;101700.71;;;12.69;89.24
80118;BME280;69424;48.770;-1.564;2024-02-14T01:47:51;101707.45;;;12.69;89.52
80118;BME280;69424;48.770;-1.564;2024-02-14T01:48:26;101700.51;;;12.67;89.53
80118;BME280;69424;48.770;-1.564;2024-02-14T01:48:59;101704.58;;;12.67;89.35
80118;BME280;69424;48.770;-1.564;2024-02-14T01:49:34;101706.00;;;12.67;89.49
80118;BME280;69424;48.770;-1.564;2024-02-14T01:50:08;101707.05;;;12.66;89.56
80118;BME280;69424;48.770;-1.564;2024-02-14T01:50:44;101710.27;;;12.67;89.63
80118;BME280;69424;48.770;-1.564;2024-02-14T01:51:19;101706.88;;;12.66;89.52
80118;BME280;69424;48.770;-1.564;2024-02-14T01:51:58;101709.58;;;12.67;89.55
80118;BME280;69424;48.770;-1.564;2024-02-14T01:52:32;101703.72;;;12.67;89.76
80118;BME280;69424;48.770;-1.564;2024-02-14T01:53:05;101705.85;;;12.67;89.78
80118;BME280;69424;48.770;-1.564;2024-02-14T01:53:40;101704.06;;;12.67;89.62
80118;BME280;69424;48.770;-1.564;2024-02-14T01:54:14;101706.19;;;12.68;89.54
80118;BME280;69424;48.770;-1.564;2024-02-14T01:54:47;101712.60;;;12.69;89.75
80118;BME280;69424;48.770;-1.564;2024-02-14T01:55:21;101712.98;;;12.70;89.70
80118;BME280;69424;48.770;-1.564;2024-02-14T01:55:54;101714.94;;;12.70;89.47
80118;BME280;69424;48.770;-1.564;2024-02-14T01:56:27;101714.77;;;12.71;89.59
80118;BME280;69424;48.770;-1.564;2024-02-14T01:57:01;101717.77;;;12.71;89.59
80118;BME280;69424;48.770;-1.564;2024-02-14T01:57:36;101715.66;;;12.71;89.38
80118;BME280;69424;48.770;-1.564;2024-02-14T01:58:10;101719.59;;;12.72;89.50
80118;BME280;69424;48.770;-1.564;2024-02-14T01:58:43;101723.48;;;12.72;89.57
80118;BME280;69424;48.770;-1.564;2024-02-14T01:59:16;101724.02;;;12.72;89.54
80118;BME280;69424;48.770;-1.564;2024-02-14T01:59:51;101724.02;;;12.71;89.66
80118;BME280;69424;48.770;-1.564;2024-02-14T02:00:25;101726.34;;;12.72;89.79
80118;BME280;69424;48.770;-1.564;2024-02-14T02:00:59;101728.13;;;12.73;89.64
80118;BME280;69424;48.770;-1.564;2024-02-14T02:01:33;101724.22;;;12.73;89.77
80118;BME280;69424;48.770;-1.564;2024-02-14T02:02:07;101725.45;;;12.74;89.62
80118;BME280;69424;48.770;-1.564;2024-02-14T02:02:41;101729.72;;;12.74;89.76
80118;BME280;69424;48.770;-1.564;2024-02-14T02:03:18;101724.23;;;12.75;89.69
80118;BME280;69424;48.770;-1.564;2024-02-14T02:03:55;101727.60;;;12.75;89.87
80118;BME280;69424;48.770;-1.564;2024-02-14T02:04:29;101724.41;;;12.74;89.92
80118;BME280;69424;48.770;-1.564;2024-02-14T02:05:02;101726.17;;;12.74;90.06
80118;BME280;69424;48.770;-1.564;2024-02-14T02:05:36;101723.86;;;12.74;89.94
80118;BME280;69424;48.770;-1.564;2024-02-14T02:06:10;101721.90;;;12.73;90.08
80118;BME280;69424;48.770;-1.564;2024-02-14T02:06:46;101721.02;;;12.74;89.81
80118;BME280;69424;48.770;-1.564;2024-02-14T02:07:19;101724.75;;;12.73;89.88
80118;BME280;69424;48.770;-1.564;2024-02-14T02:07:55;101726.35;;;12.73;89.79
80118;BME280;69424;48.770;-1.564;2024-02-14T02:08:28;101727.23;;;12.73;90.00
80118;BME280;69424;48.770;-1.564;2024-02-14T02:09:02;101729.89;;;12.73;90.15
80118;BME280;69424;48.770;-1.564;2024-02-14T02:09:39;101729.89;;;12.73;90.11
80118;BME280;69424;48.770;-1.564;2024-02-14T02:10:12;101733.98;;;12.73;90.05
80118;BME280;69424;48.770;-1.564;2024-02-14T02:10:45;101731.85;;;12.73;90.25
80118;BME280;69424;48.770;-1.564;2024-02-14T02:11:18;101731.32;;;12.74;90.18
80118;BME280;69424;48.770;-1.564;2024-02-14T02:11:52;101732.39;;;12.74;90.07
80118;BME280;69424;48.770;-1.564;2024-02-14T02:12:27;101728.13;;;12.74;90.16
80118;BME280;69424;48.770;-1.564;2024-02-14T02:13:00;101729.17;;;12.74;90.01
80118;BME280;69424;48.770;-1.564;2024-02-14T02:13:34;101729.56;;;12.75;90.14
80118;BME280;69424;48.770;-1.564;2024-02-14T02:14:07;101728.69;;;12.76;90.39
80118;BME280;69424;48.770;-1.564;2024-02-14T02:14:41;101728.70;;;12.76;90.37
80118;BME280;69424;48.770;-1.564;2024-02-14T02:15:14;101723.54;;;12.76;90.40
80118;BME280;69424;48.770;-1.564;2024-02-14T02:15:48;101725.69;;;12.77;90.35
80118;BME280;69424;48.770;-1.564;2024-02-14T02:16:21;101725.71;;;12.78;90.29
80118;BME280;69424;48.770;-1.564;2024-02-14T02:16:56;101724.14;;;12.79;90.33
80118;BME280;69424;48.770;-1.564;2024-02-14T02:17:30;101722.02;;;12.79;90.20
80118;BME280;69424;48.770;-1.564;2024-02-14T02:18:04;101725.21;;;12.80;90.12
80118;BME280;69424;48.770;-1.564;2024-02-14T02:18:42;101727.52;;;12.81;90.07
80118;BME280;69424;48.770;-1.564;2024-02-14T02:19:15;101728.42;;;12.82;90.10
80118;BME280;69424;48.770;-1.564;2024-02-14T02:19:56;101730.57;;;12.83;89.99
80118;BME280;69424;48.770;-1.564;2024-02-14T02:20:31;101733.05;;;12.82;90.05
80118;BME280;69424;48.770;-1.564;2024-02-14T02:21:05;101733.25;;;12.83;90.02
80118;BME280;69424;48.770;-1.564;2024-02-14T02:21:44;101738.23;;;12.83;90.05
80118;BME280;69424;48.770;-1.564;2024-02-14T02:22:19;101735.73;;;12.84;90.00
80118;BME280;69424;48.770;-1.564;2024-02-14T02:22:52;101738.58;;;12.83;90.06
80118;BME280;69424;48.770;-1.564;2024-02-14T02:23:30;101736.25;;;12.83;90.26
80118;BME280;69424;48.770;-1.564;2024-02-14T02:24:04;101733.05;;;12.82;90.12
80118;BME280;69424;48.770;-1.564;2024-02-14T02:24:39;101732.33;;;12.82;90.16
80118;BME280;69424;48.770;-1.564;2024-02-14T02:25:13;101732.68;;;12.82;90.12
80118;BME280;69424;48.770;-1.564;2024-02-14T02:25:46;101727.54;;;12.82;90.21
80118;BME280;69424;48.770;-1.564;2024-02-14T02:26:20;101732.50;;;12.82;90.43
80118;BME280;69424;48.770;-1.564;2024-02-14T02:26:53;101727.90;;;12.82;90.35
80118;BME280;69424;48.770;-1.564;2024-02-14T02:27:26;101724.35;;;12.82;90.28
80118;BME280;69424;48.770;-1.564;2024-02-14T02:28:00;101723.45;;;12.81;90.32
80118;BME280;69424;48.770;-1.564;2024-02-14T02:28:35;101719.73;;;12.81;90.34
80118;BME280;69424;48.770;-1.564;2024-02-14T02:29:08;101714.23;;;12.81;90.20
80118;BME280;69424;48.770;-1.564;2024-02-14T02:29:41;101715.83;;;12.82;90.23
80118;BME280;69424;48.770;-1.564;2024-02-14T02:30:15;101714.58;;;12.82;90.11
80118;BME280;69424;48.770;-1.564;2024-02-14T02:30:48;101712.98;;;12.81;90.28
80118;BME280;69424;48.770;-1.564;2024-02-14T02:31:23;101708.73;;;12.81;90.20
80118;BME280;69424;48.770;-1.564;2024-02-14T02:31:57;101708.72;;;12.81;90.16
80118;BME280;69424;48.770;-1.564;2024-02-14T02:32:30;101712.63;;;12.82;90.25
80118;BME280;69424;48.770;-1.564;2024-02-14T02:33:04;101713.52;;;12.82;90.28
80118;BME280;69424;48.770;-1.564;2024-02-14T02:33:41;101717.80;;;12.83;90.32
80118;BME280;69424;48.770;-1.564;2024-02-14T02:34:19;101711.95;;;12.84;90.42
80118;BME280;69424;48.770;-1.564;2024-02-14T02:34:52;101713.74;;;12.86;90.38
80118;BME280;69424;48.770;-1.564;2024-02-14T02:35:26;101712.52;;;12.87;90.49
80118;BME280;69424;48.770;-1.564;2024-02-14T02:35:59;101707.92;;;12.88;90.48
80118;BME280;69424;48.770;-1.564;2024-02-14T02:36:33;101709.01;;;12.89;90.33
80118;BME280;69424;48.770;-1.564;2024-02-14T02:37:15;101710.99;;;12.91;90.33
80118;BME280;69424;48.770;-1.564;2024-02-14T02:37:51;101705.66;;;12.90;90.17
80118;BME280;69424;48.770;-1.564;2024-02-14T02:38:24;101709.39;;;12.91;90.18
80118;BME280;69424;48.770;-1.564;2024-02-14T02:38:58;101709.23;;;12.91;90.33
80118;BME280;69424;48.770;-1.564;2024-02-14T02:39:33;101707.61;;;12.91;90.03
80118;BME280;69424;48.770;-1.564;2024-02-14T02:40:09;101707.98;;;12.91;90.11
80118;BME280;69424;48.770;-1.564;2024-02-14T02:40:44;101707.95;;;12.90;90.18
80118;BME280;69424;48.770;-1.564;2024-02-14T02:41:18;101710.80;;;12.90;90.25
80118;BME280;69424;48.770;-1.564;2024-02-14T02:41:53;101714.18;;;12.90;90.15
80118;BME280;69424;48.770;-1.564;2024-02-14T02:42:28;101710.97;;;12.90;90.20
80118;BME280;69424;48.770;-1.564;2024-02-14T02:43:02;101709.02;;;12.90;90.11
80118;BME280;69424;48.770;-1.564;2024-02-14T02:43:36;101709.73;;;12.90;90.19
80118;BME280;69424;48.770;-1.564;2024-02-14T02:44:11;101711.16;;;12.91;90.30
80118;BME280;69424;48.770;-1.564;2024-02-14T02:44:47;101712.06;;;12.91;90.17
80118;BME280;69424;48.770;-1.564;2024-02-14T02:45:21;101709.58;;;12.91;90.20
80118;BME280;69424;48.770;-1.564;2024-02-14T02:45:55;101710.10;;;12.92;90.06
80118;BME280;69424;48.770;-1.564;2024-02-14T02:46:33;101710.30;;;12.93;90.15
80118;BME280;69424;48.770;-1.564;2024-02-14T02:47:06;101712.09;;;12.93;90.06
80118;BME280;69424;48.770;-1.564;2024-02-14T02:47:41;101707.65;;;12.94;90.09
80118;BME280;69424;48.770;-1.564;2024-02-14T02:48:17;101711.92;;;12.94;90.28
80118;BME280;69424;48.770;-1.564;2024-02-14T02:48:58;101711.77;;;12.95;90.27
80118;BME280;69424;48.770;-1.564;2024-02-14T02:49:32;101714.45;;;12.96;90.19
80118;BME280;69424;48.770;-1.564;2024-02-14T02:50:08;101712.16;;;12.97;90.29
80118;BME280;69424;48.770;-1.564;2024-02-14T02:50:42;101716.25;;;12.98;90.34
80118;BME280;69424;48.770;-1.564;2024-02-14T02:51:17;101712.89;;;12.99;90.26
80118;BME280;69424;48.770;-1.564;2024-02-14T02:51:54;101709.16;;;13.00;90.24
80118;BME280;69424;48.770;-1.564;2024-02-14T02:52:28;101712.38;;;13.01;90.09
80118;BME280;69424;48.770;-1.564;2024-02-14T02:53:01;101711.52;;;13.02;89.99
80118;BME280;69424;48.770;-1.564;2024-02-14T02:53:37;101714.00;;;13.02;90.03
80118;BME280;69424;48.770;-1.564;2024-02-14T02:54:11;101711.34;;;13.03;89.95
80118;BME280;69424;48.770;-1.564;2024-02-14T02:54:44;101709.76;;;13.04;90.13
80118;BME280;69424;48.770;-1.564;2024-02-14T02:55:22;101712.07;;;13.04;90.04
80118;BME280;69424;48.770;-1.564;2024-02-14T02:55:58;101714.91;;;13.04;90.06
80118;BME280;69424;48.770;-1.564;2024-02-14T02:56:33;101709.59;;;13.05;89.95